Time;durP1;ratioP1;P1;durP2;ratioP2;P2;SDS_P1;SDS_P2;PMS_P1;PMS_P2;Temp;Humidity;BMP_temperature;BMP_pressure;BME280_temperature;BME280_humidity;BME280_pressure;Samples;Min_cycle;Max_cycle;Signal;HPM_P1;HPM_P2
2022/05/13 00:06:55;;;;;;;2.42;0.40;;;12.20;99.90;;;;;;20435153;28;20047;-39
2022/05/13 00:16:56;;;;;;;0.73;0.30;;;12.30;99.90;;;;;;20421349;28;20493;-40
2022/05/13 00:26:57;;;;;;;3.65;0.90;;;12.40;99.90;;;;;;20423372;28;20046;-40
2022/05/13 00:36:59;;;;;;;1.08;0.63;;;12.40;99.90;;;;;;20420301;28;20039;-40
2022/05/13 00:47:01;;;;;;;2.28;0.50;;;12.50;99.90;;;;;;20430165;28;20142;-40
2022/05/13 00:57:03;;;;;;;5.35;1.23;;;12.60;99.90;;;;;;20436405;28;20032;-40
2022/05/13 01:07:09;;;;;;;1.85;0.73;;;12.70;99.90;;;;;;20423866;28;20058;-40
2022/05/13 01:27:43;;;;;;;2.92;1.90;;;12.90;99.90;;;;;;20442950;28;20129;-40
2022/05/13 01:37:44;;;;;;;3.65;1.05;;;12.90;99.90;;;;;;20429975;28;20028;-40
2022/05/13 01:47:45;;;;;;;4.45;1.00;;;13.00;99.90;;;;;;20438055;28;20043;-40
2022/05/13 01:57:46;;;;;;;11.95;1.10;;;12.90;99.90;;;;;;20437634;28;20036;-40
2022/05/13 02:07:47;;;;;;;4.13;1.02;;;13.00;99.90;;;;;;20445169;28;20051;-40
2022/05/13 02:17:49;;;;;;;5.90;2.10;;;12.90;99.90;;;;;;20444806;28;20043;-40
2022/05/13 02:27:50;;;;;;;6.47;1.40;;;12.90;99.90;;;;;;20427365;28;20533;-40
2022/05/13 02:37:52;;;;;;;4.03;1.50;;;12.90;99.90;;;;;;20431090;28;20042;-40
2022/05/13 02:47:53;;;;;;;3.17;0.90;;;13.00;99.90;;;;;;20445863;28;20043;-40
2022/05/13 02:57:55;;;;;;;8.68;1.30;;;13.10;99.90;;;;;;20438136;28;20039;-40
2022/05/13 03:08:00;;;;;;;3.65;1.15;;;13.00;99.90;;;;;;20452403;28;20107;-40
2022/05/13 03:18:02;;;;;;;5.65;1.40;;;12.80;99.90;;;;;;20441877;28;20071;-40
2022/05/13 03:28:03;;;;;;;3.75;1.17;;;12.70;99.90;;;;;;20437793;28;20051;-40
2022/05/13 03:38:04;;;;;;;4.20;0.90;;;12.40;99.90;;;;;;20444375;28;20027;-40
2022/05/13 03:48:06;;;;;;;10.90;0.80;;;12.50;99.90;;;;;;20448285;28;20047;-40
2022/05/13 03:58:07;;;;;;;3.50;0.60;;;12.50;99.90;;;;;;20454965;28;20145;-40
2022/05/13 04:18:28;;;;;;;3.75;0.65;;;12.70;99.90;;;;;;20451640;28;20055;-40
2022/05/13 04:28:30;;;;;;;2.92;1.48;;;12.60;99.90;;;;;;20445651;28;20051;-40
2022/05/13 04:38:31;;;;;;;3.60;0.80;;;12.60;99.90;;;;;;20439035;28;20054;-40
2022/05/13 04:48:32;;;;;;;2.42;0.90;;;12.70;99.90;;;;;;20447402;28;20329;-40
2022/05/13 04:58:34;;;;;;;1.45;0.65;;;12.70;99.90;;;;;;20447211;28;20066;-40
2022/05/13 05:08:36;;;;;;;2.40;0.47;;;12.70;99.90;;;;;;20441254;28;20052;-40
2022/05/13 05:18:39;;;;;;;4.22;0.82;;;12.90;99.90;;;;;;20451035;28;20058;-40
2022/05/13 05:28:40;;;;;;;2.83;0.65;;;12.90;99.90;;;;;;20442337;28;20810;-41
2022/05/13 05:38:41;;;;;;;1.70;0.70;;;13.20;99.90;;;;;;20433478;28;20036;-40
2022/05/13 05:48:42;;;;;;;1.73;1.02;;;13.40;99.90;;;;;;20433758;28;20055;-40
2022/05/13 05:58:43;;;;;;;2.28;1.02;;;13.40;99.90;;;;;;20430931;28;20055;-40
2022/05/13 06:08:44;;;;;;;1.02;0.40;;;13.50;99.90;;;;;;20438201;28;20495;-40
2022/05/13 06:18:46;;;;;;;5.65;0.68;;;13.70;99.90;;;;;;20423270;28;20043;-40
2022/05/13 06:28:47;;;;;;;2.67;0.40;;;13.60;99.90;;;;;;20427391;28;20503;-40
2022/05/13 06:38:48;;;;;;;1.38;0.50;;;13.90;99.90;;;;;;20432745;28;20066;-40
2022/05/13 06:48:49;;;;;;;1.50;0.57;;;14.00;99.90;;;;;;20438724;28;20600;-40
2022/05/13 06:58:50;;;;;;;1.77;0.50;;;14.20;99.90;;;;;;20439289;28;20129;-40
2022/05/13 07:08:52;;;;;;;2.53;0.50;;;14.30;99.90;;;;;;20438813;28;20134;-40
2022/05/13 07:18:53;;;;;;;1.77;0.60;;;14.40;99.90;;;;;;20449064;28;20054;-38
2022/05/13 07:28:54;;;;;;;1.48;0.45;;;14.50;99.90;;;;;;20448678;28;20036;-38
2022/05/13 07:49:16;;;;;;;0.80;0.30;;;14.70;99.90;;;;;;20454446;28;20510;-40
2022/05/13 07:59:18;;;;;;;1.80;0.32;;;15.10;99.90;;;;;;20443666;28;20047;-40
2022/05/13 08:09:19;;;;;;;1.90;0.38;;;15.30;99.90;;;;;;20459228;28;20048;-39
2022/05/13 08:19:20;;;;;;;3.15;0.68;;;15.30;99.90;;;;;;20464305;28;20054;-39
2022/05/13 08:29:21;;;;;;;0.70;0.30;;;15.30;99.90;;;;;;20453086;28;20054;-41
2022/05/13 08:39:22;;;;;;;1.48;0.43;;;15.40;99.90;;;;;;20449306;28;20050;-40
2022/05/13 08:49:33;;;;;;;3.20;0.50;;;15.60;99.90;;;;;;20455797;28;20450;-40
2022/05/13 08:59:45;;;;;;;1.52;0.50;;;16.00;99.90;;;;;;20456132;28;20043;-39
2022/05/13 09:09:51;;;;;;;2.42;0.43;;;16.40;99.90;;;;;;20452747;28;20127;-42
2022/05/13 09:20:11;;;;;;;1.25;0.40;;;16.30;99.90;;;;;;20468675;28;20397;-45
2022/05/13 09:30:17;;;;;;;0.70;0.30;;;16.40;99.90;;;;;;20456237;28;20051;-40
2022/05/13 09:40:23;;;;;;;2.28;0.85;;;16.80;99.90;;;;;;20455887;28;20035;-40
2022/05/13 09:50:27;;;;;;;2.30;1.25;;;16.90;99.90;;;;;;20448217;28;20055;-40
2022/05/13 10:00:32;;;;;;;2.60;0.57;;;16.80;99.90;;;;;;20452608;28;20038;-39
2022/05/13 10:21:10;;;;;;;2.78;0.60;;;17.00;99.90;;;;;;20447440;28;20719;-40
2022/05/13 10:31:16;;;;;;;0.73;0.35;;;17.30;99.90;;;;;;20447964;28;20270;-40
2022/05/13 10:41:42;;;;;;;6.82;0.63;;;17.60;99.90;;;;;;20439022;28;20476;-40
2022/05/13 10:52:24;;;;;;;1.95;0.50;;;17.90;99.90;;;;;;20429598;28;20903;-40
2022/05/13 11:02:51;;;;;;;5.18;0.70;;;18.50;99.90;;;;;;20423001;28;20404;-40
2022/05/13 11:13:01;;;;;;;3.13;0.50;;;18.40;99.90;;;;;;20423809;28;20424;-39
2022/05/13 11:23:14;;;;;;;5.60;0.50;;;19.00;99.90;;;;;;20434891;28;20054;-40
2022/05/13 11:33:28;;;;;;;2.50;0.85;;;18.60;99.90;;;;;;20420178;28;20054;-39
2022/05/13 11:43:57;;;;;;;1.23;0.38;;;18.50;99.90;;;;;;20422866;28;20046;-40
2022/05/13 11:54:22;;;;;;;1.20;0.52;;;18.70;99.90;;;;;;20423116;28;20477;-40
2022/05/13 12:04:27;;;;;;;1.77;0.77;;;18.10;99.90;;;;;;20450775;28;20051;-39
2022/05/13 12:14:52;;;;;;;1.73;0.50;;;18.10;99.90;;;;;;20445251;28;20047;-39
2022/05/13 12:25:07;;;;;;;1.63;1.15;;;18.80;99.90;;;;;;20423095;28;20164;-39
2022/05/13 12:45:38;;;;;;;0.95;0.45;;;19.00;99.90;;;;;;20456556;28;20042;-39
2022/05/13 12:55:40;;;;;;;1.38;0.60;;;19.20;99.90;;;;;;20442600;28;20048;-40
2022/05/13 13:05:47;;;;;;;1.65;0.60;;;19.10;99.90;;;;;;20437226;28;21467;-39
2022/05/13 13:15:55;;;;;;;1.45;0.30;;;19.20;99.90;;;;;;20440681;28;20036;-39
2022/05/13 13:25:57;;;;;;;2.70;0.38;;;19.30;99.90;;;;;;20428988;28;20040;-40
2022/05/13 13:36:13;;;;;;;1.63;0.47;;;20.10;99.90;;;;;;20430778;28;20050;-39
2022/05/13 13:46:19;;;;;;;1.70;0.70;;;20.20;99.50;;;;;;20432707;28;20055;-39
2022/05/13 13:56:21;;;;;;;3.72;0.77;;;20.40;98.70;;;;;;20426716;28;20043;-39
2022/05/13 14:06:23;;;;;;;0.77;0.38;;;20.10;98.70;;;;;;20434233;28;20047;-40
2022/05/13 14:16:27;;;;;;;1.38;0.45;;;19.60;99.90;;;;;;20433101;28;20055;-40
2022/05/13 14:26:32;;;;;;;2.70;0.70;;;19.60;99.90;;;;;;20434723;28;20467;-39
2022/05/13 14:36:39;;;;;;;1.80;0.47;;;19.70;99.90;;;;;;20426401;28;20043;-39
2022/05/13 14:46:54;;;;;;;3.47;0.43;;;19.30;99.90;;;;;;20426936;28;20043;-39
2022/05/13 14:57:02;;;;;;;1.23;0.40;;;18.70;99.90;;;;;;20429305;28;20043;-39
2022/05/13 15:07:33;;;;;;;3.90;1.13;;;19.00;99.90;;;;;;20438258;28;20514;-46
2022/05/13 15:17:50;;;;;;;0.77;0.60;;;19.00;99.70;;;;;;20434707;28;20414;-39
2022/05/13 15:27:51;;;;;;;1.57;0.60;;;18.80;99.90;;;;;;20416457;28;20407;-39
2022/05/13 15:37:56;;;;;;;5.82;0.60;;;18.90;99.90;;;;;;20443349;28;20051;-39
2022/05/13 15:47:57;;;;;;;2.20;0.52;;;18.90;99.90;;;;;;20447619;28;20046;-39
2022/05/13 15:58:06;;;;;;;1.35;0.50;;;18.70;99.90;;;;;;20439231;28;20047;-39
2022/05/13 16:08:08;;;;;;;1.83;0.68;;;18.80;99.90;;;;;;20438945;28;20491;-39
2022/05/13 16:18:16;;;;;;;7.68;0.85;;;18.70;99.90;;;;;;20439040;28;20066;-39
2022/05/13 16:28:18;;;;;;;1.17;0.50;;;18.50;99.90;;;;;;20447490;28;20167;-40
2022/05/13 16:38:19;;;;;;;1.20;0.60;;;18.40;99.90;;;;;;20448630;28;20055;-40
2022/05/13 16:48:20;;;;;;;1.48;0.70;;;18.20;99.90;;;;;;20437426;28;20043;-40
2022/05/13 16:58:21;;;;;;;2.03;0.73;;;17.90;99.90;;;;;;20433536;28;20047;-39
2022/05/13 17:08:22;;;;;;;4.28;1.45;;;17.60;99.90;;;;;;20447875;28;20043;-39
2022/05/13 17:19:15;;;;;;;2.95;1.02;;;17.50;99.90;;;;;;20437012;28;20047;-39
2022/05/13 17:28:44;;;;;;;1.25;0.60;;;17.20;99.90;;;;;;20448007;28;20056;-39
2022/05/13 17:38:45;;;;;;;1.30;0.50;;;17.10;99.90;;;;;;20438894;28;20035;-40
2022/05/13 17:48:47;;;;;;;2.25;1.10;;;17.00;99.90;;;;;;20450325;28;20142;-40
2022/05/13 17:58:48;;;;;;;0.93;0.40;;;17.00;99.90;;;;;;20431166;28;20047;-39
2022/05/13 18:08:49;;;;;;;1.85;0.40;;;17.00;99.90;;;;;;20460112;28;20430;-39
2022/05/13 18:18:50;;;;;;;1.90;0.60;;;16.50;99.90;;;;;;20461015;28;20291;-40
2022/05/13 18:28:52;;;;;;;4.78;0.68;;;16.40;99.90;;;;;;20438396;28;20058;-40
2022/05/13 18:38:54;;;;;;;1.17;0.38;;;16.30;99.90;;;;;;20448246;28;20491;-39
2022/05/13 18:48:55;;;;;;;2.05;1.08;;;16.00;99.90;;;;;;20438706;28;20047;-40
2022/05/13 18:58:58;;;;;;;1.65;0.52;;;15.80;99.90;;;;;;20456269;28;20043;-40
2022/05/13 19:08:59;;;;;;;1.05;0.47;;;15.70;99.90;;;;;;20447700;28;20047;-40
2022/05/13 19:19:06;;;;;;;3.05;0.60;;;15.50;99.90;;;;;;20439385;28;20407;-40
2022/05/13 19:29:07;;;;;;;1.52;0.40;;;15.30;99.90;;;;;;20453839;28;20051;-41
2022/05/13 19:39:08;;;;;;;1.85;0.38;;;15.10;99.90;;;;;;20458630;28;20550;-40
2022/05/13 19:49:11;;;;;;;2.03;0.45;;;15.00;99.90;;;;;;20446794;28;20039;-40
2022/05/13 19:59:13;;;;;;;2.08;0.52;;;14.70;99.90;;;;;;20457477;28;20062;-40
2022/05/13 20:22:59;;;;;;;2.70;0.60;;;14.50;99.90;;;;;;20434048;28;20529;-40
2022/05/13 20:29:57;;;;;;;1.08;0.40;;;14.40;99.90;;;;;;20435347;28;20054;-40
2022/05/13 20:39:58;;;;;;;1.55;0.40;;;14.30;99.90;;;;;;20453620;28;20403;-40
2022/05/13 20:49:59;;;;;;;1.83;0.40;;;14.20;99.90;;;;;;20460374;28;20047;-40
2022/05/13 21:00:03;;;;;;;1.15;0.35;;;14.10;99.90;;;;;;20444437;28;20039;-40
2022/05/13 21:10:06;;;;;;;0.88;0.40;;;14.10;99.90;;;;;;20452934;28;20073;-40
2022/05/13 21:20:15;;;;;;;0.95;0.30;;;14.10;99.90;;;;;;20449425;28;20058;-40
2022/05/13 21:30:18;;;;;;;1.80;1.08;;;14.00;99.90;;;;;;20469043;28;20061;-40
2022/05/13 21:40:20;;;;;;;0.90;0.40;;;13.90;99.90;;;;;;20444196;28;20435;-39
2022/05/13 21:50:24;;;;;;;1.55;0.60;;;13.80;99.90;;;;;;20451773;28;20051;-40
2022/05/13 22:00:34;;;;;;;3.30;0.60;;;13.70;99.90;;;;;;20430462;28;20047;-40
2022/05/13 22:10:35;;;;;;;1.35;0.85;;;13.40;99.90;;;;;;20424339;28;20056;-40
2022/05/13 22:20:36;;;;;;;1.20;0.32;;;13.20;99.90;;;;;;20416231;28;20063;-39
2022/05/13 22:30:39;;;;;;;0.98;0.38;;;13.20;99.90;;;;;;20424404;28;20059;-39
2022/05/13 22:40:41;;;;;;;1.08;0.50;;;13.20;99.90;;;;;;20429294;28;20565;-39
2022/05/13 22:50:44;;;;;;;1.52;0.73;;;13.10;99.90;;;;;;20424066;28;20050;-39
2022/05/13 23:00:46;;;;;;;1.20;0.40;;;12.80;99.90;;;;;;20425843;28;20035;-39
2022/05/13 23:21:08;;;;;;;0.88;0.30;;;12.70;99.90;;;;;;20416752;28;20051;-39
2022/05/13 23:31:11;;;;;;;2.22;0.70;;;12.60;99.90;;;;;;20411279;28;20086;-39
2022/05/13 23:41:12;;;;;;;3.15;0.60;;;12.60;99.90;;;;;;20466581;28;20404;-39
2022/05/13 23:51:14;;;;;;;1.63;0.63;;;12.40;99.90;;;;;;20433178;28;20503;-39
